Azamara Journey — 9HOB8 — position and weather

sailwx.info

Track history (hours):
 
Tides and Currents Weather Stations Pressure Air Temp Water Temp Dewpoint Dewpoint Depression Visibility Wind Speed Wind Dir Waves Ship Positions

Azamara Journey

Last reported at 2018-Oct-24 02:00 UTC. Time now 2018-Oct-24 05:39 UTC.
Position N 38°36' W 012°00'.

Type: Ship. MMSI: 256204000.

Wind from 140 at 14 knots

Barometer 1025.9 mb
Air temperature 19.0 ° C
Visibility: greater than 5.4 NM
Dewpoint 19.0 ° C
Water temperature 15.0 ° C

Date/timePositionNaut miles runAvg speedWind from/ knotsBaromVisibWave heightAir tempDewpointWater temp
2018-Oct-24 02:00N 38°36' W 012°00'8516.9 140 / 141025.9 5.4 19.019.015.0
2018-Oct-23 21:00N 38°30' W 010°12'4 9.2 110 / 81025.910.8 19.017.4
2018-Oct-23 20:31N 38°32' W 010°17'214.3
2018-Oct-23 20:25N 38°32' W 010°15'514.4
2018-Oct-23 20:03N 38°32' W 010°08'114.5
2018-Oct-23 20:00N 38°32' W 010°07'714.7
2018-Oct-23 19:30N 38°34' W 009°58'714.5
2018-Oct-23 19:03N 38°34' W 009°50'114.7
2018-Oct-23 19:01N 38°34' W 009°49'714.4
2018-Oct-23 18:30N 38°35' W 009°40'613.8
2018-Oct-23 18:03N 38°36' W 009°32'113.4
2018-Oct-23 18:01N 38°36' W 009°31'714.0
2018-Oct-23 17:30N 38°37' W 009°22'817.6
2018-Oct-23 17:03N 38°41' W 009°13'114.1
2018-Oct-23 17:00N 38°41' W 009°12'4 8.0
2018-Oct-23 16:30N 38°43' W 009°08'0 0.0
2018-Oct-23 16:03N 38°43' W 009°08'0 0.0
2018-Oct-23 16:00N 38°43' W 009°08'0 0.0
2018-Oct-23 15:27N 38°43' W 009°08'0 0.0
2018-Oct-23 15:03N 38°43' W 009°08'0 0.0
2018-Oct-23 14:57N 38°43' W 009°08'0 0.0
2018-Oct-23 14:03N 38°43' W 009°08'0 0.0
2018-Oct-23 13:30N 38°43' W 009°08'0 0.0
2018-Oct-23 13:00N 38°43' W 009°08'0 0.0
2018-Oct-23 12:30N 38°43' W 009°08'0 0.0
2018-Oct-23 12:03N 38°43' W 009°08'0 0.0
2018-Oct-23 12:00N 38°43' W 009°08'0 0.0
2018-Oct-23 11:27N 38°43' W 009°08'0 0.0
2018-Oct-23 10:57N 38°43' W 009°08'0 0.0
2018-Oct-23 10:30N 38°43' W 009°08'0 0.0
2018-Oct-23 10:03N 38°43' W 009°08'0 0.0
2018-Oct-23 10:00N 38°43' W 009°08'0 0.0
2018-Oct-23 09:30N 38°43' W 009°08'0 0.0
2018-Oct-23 09:00N 38°43' W 009°08'0 0.0
2018-Oct-23 08:30N 38°43' W 009°08'0 0.0
2018-Oct-23 08:00N 38°43' W 009°08'0 0.0
2018-Oct-23 07:30N 38°43' W 009°08'0 0.0
2018-Oct-23 07:03N 38°43' W 009°08'0 0.0
2018-Oct-23 07:00N 38°43' W 009°08'0 0.0
2018-Oct-23 06:30N 38°43' W 009°08'0 0.0
2018-Oct-23 06:03N 38°43' W 009°08'0 0.0
2018-Oct-23 06:00N 38°43' W 009°08'0 0.0
2018-Oct-23 05:30N 38°43' W 009°08'0 0.0
2018-Oct-23 05:00N 38°43' W 009°08'0 0.2
2018-Oct-23 04:30N 38°42' W 009°08'3 7.6
2018-Oct-23 04:03N 38°41' W 009°12'111.8
2018-Oct-23 04:00N 38°41' W 009°12'611.2
2018-Oct-23 03:30N 38°39' W 009°19'614.1
2018-Oct-23 03:03N 38°35' W 009°25'115.0
2018-Oct-23 03:00N 38°34' W 009°25'612.6
2018-Oct-23 02:31N 38°28' W 009°26'612.6
2018-Oct-23 02:04N 38°22' W 009°25'113.1
2018-Oct-23 02:01N 38°21' W 009°25'612.9
2018-Oct-23 01:31N 38°15' W 009°25'613.2
2018-Oct-23 01:04N 38°09' W 009°25'113.1
2018-Oct-23 01:01N 38°08' W 009°25'4220.2
2018-Oct-23 01:00N 38°12' W 009°24'1020.8 060 / 81021.727.0 20.016.7
2018-Oct-23 00:31N 38°02' W 009°24'613.1
2018-Oct-23 00:04N 37°56' W 009°24'113.0
2018-Oct-23 00:01N 37°55' W 009°24'613.0
2018-Oct-22 23:30N 37°49' W 009°23'613.0
2018-Oct-22 23:04N 37°43' W 009°23'113.1
2018-Oct-22 23:01N 37°42' W 009°23'713.1
2018-Oct-22 22:30N 37°36' W 009°22'715.0
2018-Oct-22 22:03N 37°29' W 009°22'115.0
2018-Oct-22 22:00N 37°28' W 009°22'714.7
2018-Oct-22 21:30N 37°21' W 009°22'714.5
2018-Oct-22 21:03N 37°14' W 009°22'114.5
2018-Oct-22 21:01N 37°14' W 009°22'714.4
2018-Oct-22 20:31N 37°07' W 009°21'1614.0
2018-Oct-22 19:21N 36°51' W 009°15'1413.8
2018-Oct-22 18:22N 36°44' W 009°01'414.2
2018-Oct-22 18:03N 36°42' W 008°56'214.5
2018-Oct-22 17:56N 36°42' W 008°54'614.5
2018-Oct-22 17:31N 36°43' W 008°46'714.7
2018-Oct-22 17:03N 36°43' W 008°38'114.8
2018-Oct-22 16:58N 36°43' W 008°36'714.8
2018-Oct-22 16:30N 36°43' W 008°27'814.9
2018-Oct-22 15:57N 36°43' W 008°17'715.3
2018-Oct-22 15:31N 36°43' W 008°09'113 6.1
2018-Oct-21 21:00N 37°18' W 005°54'0 0.0 040 / 41020.8 5.4 19.015.721.0
2018-Oct-21 14:00N 37°18' W 005°54'0 0.0 150 / 41019.710.8 23.018.3
2018-Oct-20 19:00N 37°18' W 005°54'81 4.8 030 / 21016.8 5.4 18.016.322.0
2018-Oct-20 02:05N 35°58' W 005°38'012.7
2018-Oct-20 02:04N 35°58' W 005°38'112.5
2018-Oct-20 02:01N 35°58' W 005°37'612.0
2018-Oct-20 01:31N 35°59' W 005°30'612.6
2018-Oct-20 01:04N 36°01' W 005°23'112.5
2018-Oct-20 01:00N 36°01' W 005°22'7456.8
2018-Oct-20 01:00N 35°54' W 005°24'1326.6 100 / 211014.327.0 19.015.7
2018-Oct-20 00:31N 36°04' W 005°15'4412.6
2018-Oct-19 21:00N 36°30' W 004°30'116 4.8 080 / 151015.810.8 21.019.423.0
2018-Oct-18 21:00N 36°24' W 002°06'8917.4 270 / 151010.810.8 19.015.721.0
2018-Oct-18 15:53N 37°35' W 000°59'1 0.1
2018-Oct-18 08:34N 37°36' W 000°59'0 1.8
2018-Oct-18 08:29N 37°36' W 000°59'3 6.8
2018-Oct-18 08:03N 37°33' W 000°59'114.5
2018-Oct-18 08:00N 37°32' W 000°58'612.8
2018-Oct-18 07:30N 37°32' W 000°50'511.5
2018-Oct-18 07:03N 37°32' W 000°44'111.5
2018-Oct-18 07:00N 37°32' W 000°43'611.6
2018-Oct-18 06:30N 37°33' W 000°36'511.7
2018-Oct-18 06:03N 37°37' W 000°31'112.2
2018-Oct-18 06:00N 37°37' W 000°30'612.7
2018-Oct-18 05:30N 37°43' W 000°26'814.3
2018-Oct-18 04:55N 37°50' W 000°20'914.6
2018-Oct-18 04:17N 37°57' W 000°13'315.3
2018-Oct-18 04:03N 38°00' W 000°11'115.3
2018-Oct-18 04:00N 38°01' W 000°10'2613.2
2018-Oct-18 02:00N 38°24' E 000°06'4812.1 310 / 151012.910.8 20.016.7
2018-Oct-17 22:00N 39°12' E 000°00'2014.0 020 / 71015.810.8 21.017.823.0
2018-Oct-17 20:33N 39°26' W 000°19'011.7
2018-Oct-17 20:30N 39°27' W 000°19'3 0.2
2018-Oct-17 07:00N 39°24' W 000°18'3 2.6 260 / 51017.810.8 21.012.222.0
2018-Oct-17 05:39N 39°27' W 000°19'0 0.7
2018-Oct-17 05:30N 39°27' W 000°19'3 6.3
2018-Oct-17 05:03N 39°25' W 000°17'114.2
2018-Oct-17 05:00N 39°25' W 000°16'5012.3
2018-Oct-17 01:00N 39°24' E 000°48'5112.8 010 / 141017.710.8 21.016.120.0
2018-Oct-16 21:00N 39°24' E 001°54'2713.7 150 / 71017.810.8 21.017.821.0
2018-Oct-16 19:01N 39°26' E 002°29'014.9
2018-Oct-16 19:00N 39°26' E 002°29'713.6
2018-Oct-16 18:30N 39°30' E 002°36'4 8.8
2018-Oct-16 18:03N 39°33' E 002°38'0 0.1
2018-Oct-16 17:59N 39°33' E 002°38'0 0.0
2018-Oct-16 17:29N 39°33' E 002°38'0 0.0
2018-Oct-16 17:02N 39°33' E 002°38'0 0.0
2018-Oct-16 16:59N 39°33' E 002°38'0 0.0
2018-Oct-16 16:26N 39°33' E 002°38'0 0.0
2018-Oct-16 16:02N 39°33' E 002°38'0 0.0
2018-Oct-16 15:59N 39°33' E 002°38'0 0.0
2018-Oct-16 15:29N 39°33' E 002°38'0 0.0
2018-Oct-16 15:02N 39°33' E 002°38'0 0.0
2018-Oct-16 14:59N 39°33' E 002°38'0 0.0
2018-Oct-16 14:02N 39°33' E 002°38'0 0.0
2018-Oct-16 13:59N 39°33' E 002°38'0 0.0
2018-Oct-16 13:29N 39°33' E 002°38'0 0.0
2018-Oct-16 13:02N 39°33' E 002°38'485.6
2018-Oct-16 13:00N 39°30' E 002°36'4500.5 200 / 71016.027.0 22.022.020.0
2018-Oct-16 12:59N 39°33' E 002°38'0 0.0
2018-Oct-16 12:29N 39°33' E 002°38'0 0.0
2018-Oct-16 11:59N 39°33' E 002°38'0 0.0
2018-Oct-16 11:29N 39°33' E 002°38'0 0.0
2018-Oct-16 11:02N 39°33' E 002°38'0 0.0
2018-Oct-16 10:59N 39°33' E 002°38'0 0.0
2018-Oct-16 10:29N 39°33' E 002°38'4 7.3
2018-Oct-16 10:00N 39°30' E 002°36'4500.5 080 / 51015.8 5.4 21.017.822.0
2018-Oct-16 09:59N 39°33' E 002°38'0 0.0
2018-Oct-16 09:26N 39°33' E 002°38'0 0.0
2018-Oct-16 09:02N 39°33' E 002°38'0 0.0
2018-Oct-16 08:59N 39°33' E 002°38'0 0.0
2018-Oct-16 08:29N 39°33' E 002°38'0 0.0
2018-Oct-16 08:02N 39°33' E 002°38'0 0.0
2018-Oct-16 07:59N 39°33' E 002°38'0 0.0
2018-Oct-16 07:29N 39°33' E 002°38'0 0.0
2018-Oct-16 07:02N 39°33' E 002°38'0 0.0
2018-Oct-16 06:59N 39°33' E 002°38'0 0.0
2018-Oct-16 06:29N 39°33' E 002°38'0 0.0
2018-Oct-16 05:59N 39°33' E 002°38'0 0.8
2018-Oct-16 05:30N 39°33' E 002°39'511.6
2018-Oct-16 05:03N 39°28' E 002°36'0 9.7
2018-Oct-16 05:00N 39°28' E 002°35'4 8.6
2018-Oct-16 04:30N 39°25' E 002°31'4 9.3
2018-Oct-16 04:03N 39°26' E 002°26'0 9.6
2018-Oct-16 04:00N 39°27' E 002°25'64 9.2
2018-Oct-15 21:00N 40°30' E 002°12'3712.0 200 / 101012.810.8 21.017.822.0
2018-Oct-15 17:56N 41°07' E 002°14'410.3
2018-Oct-15 17:31N 41°11' E 002°14'510.2
2018-Oct-15 17:03N 41°16' E 002°14'111.9
2018-Oct-15 17:00N 41°16' E 002°14'510.6
2018-Oct-15 16:31N 41°21' E 002°11'1 0.7
2018-Oct-15 14:45N 41°22' E 002°11'0 0.0
2018-Oct-15 14:03N 41°22' E 002°11'698.7
2018-Oct-15 14:00N 41°18' E 002°06'659.8 180 / 101007.810.8 23.019.920.0
2018-Oct-15 13:54N 41°22' E 002°11'0 0.0
2018-Oct-15 13:24N 41°22' E 002°11'0 0.0
2018-Oct-15 12:57N 41°22' E 002°11'0 0.0
2018-Oct-15 12:09N 41°22' E 002°11'0 0.0
2018-Oct-15 11:57N 41°22' E 002°11'0 0.0
2018-Oct-15 11:15N 41°22' E 002°11'0 0.0
2018-Oct-15 11:00N 41°22' E 002°11'0 0.0
2018-Oct-15 10:27N 41°22' E 002°11'0 0.0
2018-Oct-15 10:03N 41°22' E 002°11'0 0.0
2018-Oct-15 09:45N 41°22' E 002°11'0 0.0
2018-Oct-15 09:30N 41°22' E 002°11'0 0.0
2018-Oct-15 09:03N 41°22' E 002°11'0 0.0
2018-Oct-15 08:57N 41°22' E 002°11'0 0.0
2018-Oct-15 08:15N 41°22' E 002°11'6 2.5
2018-Oct-15 06:00N 41°18' E 002°06'6 2.5 270 / 61005.8 5.4 20.016.723.0
2018-Oct-15 03:48N 41°22' E 002°11'1 3.4
2018-Oct-15 03:30N 41°21' E 002°11'613.1
2018-Oct-15 03:04N 41°18' E 002°18'113.5
2018-Oct-15 03:01N 41°18' E 002°19'1817.5
2018-Oct-15 02:00N 41°06' E 002°36'6611.0 150 / 281005.810.8 21.019.420.0
2018-Oct-14 20:00N 40°36' E 003°54'63 8.9 130 / 301010.8 5.4 22.018.921.0
2018-Oct-14 13:00N 40°06' E 005°06'   130 / 221013.810.8 23.018.320.0
Track history (hours):
 
Tides and Currents Weather Stations Pressure Air Temp Water Temp Dewpoint Dewpoint Depression Visibility Wind Speed Wind Dir Waves Ship Positions

Azamara Journey

Last reported at 2018-Oct-24 02:00 UTC. Time now 2018-Oct-24 05:39 UTC.
Position N 38°36' W 012°00'.

Type: Ship. MMSI: 256204000.

Wind from 140 at 14 knots

Barometer 1025.9 mb
Air temperature 19.0 ° C
Visibility: greater than 5.4 NM
Dewpoint 19.0 ° C
Water temperature 15.0 ° C

Date/timePositionNaut miles runAvg speedWind from/ knotsBaromVisibWave heightAir tempDewpointWater temp
2018-Oct-24 02:00N 38°36' W 012°00'8516.9 140 / 141025.9 5.4 19.019.015.0
2018-Oct-23 21:00N 38°30' W 010°12'4 9.2 110 / 81025.910.8 19.017.4
2018-Oct-23 20:31N 38°32' W 010°17'214.3
2018-Oct-23 20:25N 38°32' W 010°15'514.4
2018-Oct-23 20:03N 38°32' W 010°08'114.5
2018-Oct-23 20:00N 38°32' W 010°07'714.7
2018-Oct-23 19:30N 38°34' W 009°58'714.5
2018-Oct-23 19:03N 38°34' W 009°50'114.7
2018-Oct-23 19:01N 38°34' W 009°49'714.4
2018-Oct-23 18:30N 38°35' W 009°40'613.8
2018-Oct-23 18:03N 38°36' W 009°32'113.4
2018-Oct-23 18:01N 38°36' W 009°31'714.0
2018-Oct-23 17:30N 38°37' W 009°22'817.6
2018-Oct-23 17:03N 38°41' W 009°13'114.1
2018-Oct-23 17:00N 38°41' W 009°12'4 8.0
2018-Oct-23 16:30N 38°43' W 009°08'0 0.0
2018-Oct-23 16:03N 38°43' W 009°08'0 0.0
2018-Oct-23 16:00N 38°43' W 009°08'0 0.0
2018-Oct-23 15:27N 38°43' W 009°08'0 0.0
2018-Oct-23 15:03N 38°43' W 009°08'0 0.0
2018-Oct-23 14:57N 38°43' W 009°08'0 0.0
2018-Oct-23 14:03N 38°43' W 009°08'0 0.0
2018-Oct-23 13:30N 38°43' W 009°08'0 0.0
2018-Oct-23 13:00N 38°43' W 009°08'0 0.0
2018-Oct-23 12:30N 38°43' W 009°08'0 0.0
2018-Oct-23 12:03N 38°43' W 009°08'0 0.0
2018-Oct-23 12:00N 38°43' W 009°08'0 0.0
2018-Oct-23 11:27N 38°43' W 009°08'0 0.0
2018-Oct-23 10:57N 38°43' W 009°08'0 0.0
2018-Oct-23 10:30N 38°43' W 009°08'0 0.0
2018-Oct-23 10:03N 38°43' W 009°08'0 0.0
2018-Oct-23 10:00N 38°43' W 009°08'0 0.0
2018-Oct-23 09:30N 38°43' W 009°08'0 0.0
2018-Oct-23 09:00N 38°43' W 009°08'0 0.0
2018-Oct-23 08:30N 38°43' W 009°08'0 0.0
2018-Oct-23 08:00N 38°43' W 009°08'0 0.0
2018-Oct-23 07:30N 38°43' W 009°08'0 0.0
2018-Oct-23 07:03N 38°43' W 009°08'0 0.0
2018-Oct-23 07:00N 38°43' W 009°08'0 0.0
2018-Oct-23 06:30N 38°43' W 009°08'0 0.0
2018-Oct-23 06:03N 38°43' W 009°08'0 0.0
2018-Oct-23 06:00N 38°43' W 009°08'0 0.0
2018-Oct-23 05:30N 38°43' W 009°08'0 0.0
2018-Oct-23 05:00N 38°43' W 009°08'0 0.2
2018-Oct-23 04:30N 38°42' W 009°08'3 7.6
2018-Oct-23 04:03N 38°41' W 009°12'111.8
2018-Oct-23 04:00N 38°41' W 009°12'611.2
2018-Oct-23 03:30N 38°39' W 009°19'614.1
2018-Oct-23 03:03N 38°35' W 009°25'115.0
2018-Oct-23 03:00N 38°34' W 009°25'612.6
2018-Oct-23 02:31N 38°28' W 009°26'612.6
2018-Oct-23 02:04N 38°22' W 009°25'113.1
2018-Oct-23 02:01N 38°21' W 009°25'612.9
2018-Oct-23 01:31N 38°15' W 009°25'613.2
2018-Oct-23 01:04N 38°09' W 009°25'113.1
2018-Oct-23 01:01N 38°08' W 009°25'4220.2
2018-Oct-23 01:00N 38°12' W 009°24'1020.8 060 / 81021.727.0 20.016.7
2018-Oct-23 00:31N 38°02' W 009°24'613.1
2018-Oct-23 00:04N 37°56' W 009°24'113.0
2018-Oct-23 00:01N 37°55' W 009°24'613.0
2018-Oct-22 23:30N 37°49' W 009°23'613.0
2018-Oct-22 23:04N 37°43' W 009°23'113.1
2018-Oct-22 23:01N 37°42' W 009°23'713.1
2018-Oct-22 22:30N 37°36' W 009°22'715.0
2018-Oct-22 22:03N 37°29' W 009°22'115.0
2018-Oct-22 22:00N 37°28' W 009°22'714.7
2018-Oct-22 21:30N 37°21' W 009°22'714.5
2018-Oct-22 21:03N 37°14' W 009°22'114.5
2018-Oct-22 21:01N 37°14' W 009°22'714.4
2018-Oct-22 20:31N 37°07' W 009°21'1614.0
2018-Oct-22 19:21N 36°51' W 009°15'1413.8
2018-Oct-22 18:22N 36°44' W 009°01'414.2
2018-Oct-22 18:03N 36°42' W 008°56'214.5
2018-Oct-22 17:56N 36°42' W 008°54'614.5
2018-Oct-22 17:31N 36°43' W 008°46'714.7
2018-Oct-22 17:03N 36°43' W 008°38'114.8
2018-Oct-22 16:58N 36°43' W 008°36'714.8
2018-Oct-22 16:30N 36°43' W 008°27'814.9
2018-Oct-22 15:57N 36°43' W 008°17'715.3
2018-Oct-22 15:31N 36°43' W 008°09'113 6.1
2018-Oct-21 21:00N 37°18' W 005°54'0 0.0 040 / 41020.8 5.4 19.015.721.0
2018-Oct-21 14:00N 37°18' W 005°54'0 0.0 150 / 41019.710.8 23.018.3
2018-Oct-20 19:00N 37°18' W 005°54'81 4.8 030 / 21016.8 5.4 18.016.322.0
2018-Oct-20 02:05N 35°58' W 005°38'012.7
2018-Oct-20 02:04N 35°58' W 005°38'112.5
2018-Oct-20 02:01N 35°58' W 005°37'612.0
2018-Oct-20 01:31N 35°59' W 005°30'612.6
2018-Oct-20 01:04N 36°01' W 005°23'112.5
2018-Oct-20 01:00N 36°01' W 005°22'7456.8
2018-Oct-20 01:00N 35°54' W 005°24'1326.6 100 / 211014.327.0 19.015.7
2018-Oct-20 00:31N 36°04' W 005°15'4412.6
2018-Oct-19 21:00N 36°30' W 004°30'116 4.8 080 / 151015.810.8 21.019.423.0
2018-Oct-18 21:00N 36°24' W 002°06'8917.4 270 / 151010.810.8 19.015.721.0
2018-Oct-18 15:53N 37°35' W 000°59'1 0.1
2018-Oct-18 08:34N 37°36' W 000°59'0 1.8
2018-Oct-18 08:29N 37°36' W 000°59'3 6.8
2018-Oct-18 08:03N 37°33' W 000°59'114.5
2018-Oct-18 08:00N 37°32' W 000°58'612.8
2018-Oct-18 07:30N 37°32' W 000°50'511.5
2018-Oct-18 07:03N 37°32' W 000°44'111.5
2018-Oct-18 07:00N 37°32' W 000°43'611.6
2018-Oct-18 06:30N 37°33' W 000°36'511.7
2018-Oct-18 06:03N 37°37' W 000°31'112.2
2018-Oct-18 06:00N 37°37' W 000°30'612.7
2018-Oct-18 05:30N 37°43' W 000°26'814.3
2018-Oct-18 04:55N 37°50' W 000°20'914.6
2018-Oct-18 04:17N 37°57' W 000°13'315.3
2018-Oct-18 04:03N 38°00' W 000°11'115.3
2018-Oct-18 04:00N 38°01' W 000°10'2613.2
2018-Oct-18 02:00N 38°24' E 000°06'4812.1 310 / 151012.910.8 20.016.7
2018-Oct-17 22:00N 39°12' E 000°00'2014.0 020 / 71015.810.8 21.017.823.0
2018-Oct-17 20:33N 39°26' W 000°19'011.7
2018-Oct-17 20:30N 39°27' W 000°19'3 0.2
2018-Oct-17 07:00N 39°24' W 000°18'3 2.6 260 / 51017.810.8 21.012.222.0
2018-Oct-17 05:39N 39°27' W 000°19'0 0.7
2018-Oct-17 05:30N 39°27' W 000°19'3 6.3
2018-Oct-17 05:03N 39°25' W 000°17'114.2
2018-Oct-17 05:00N 39°25' W 000°16'5012.3
2018-Oct-17 01:00N 39°24' E 000°48'5112.8 010 / 141017.710.8 21.016.120.0
2018-Oct-16 21:00N 39°24' E 001°54'2713.7 150 / 71017.810.8 21.017.821.0
2018-Oct-16 19:01N 39°26' E 002°29'014.9
2018-Oct-16 19:00N 39°26' E 002°29'713.6
2018-Oct-16 18:30N 39°30' E 002°36'4 8.8
2018-Oct-16 18:03N 39°33' E 002°38'0 0.1
2018-Oct-16 17:59N 39°33' E 002°38'0 0.0
2018-Oct-16 17:29N 39°33' E 002°38'0 0.0
2018-Oct-16 17:02N 39°33' E 002°38'0 0.0
2018-Oct-16 16:59N 39°33' E 002°38'0 0.0
2018-Oct-16 16:26N 39°33' E 002°38'0 0.0
2018-Oct-16 16:02N 39°33' E 002°38'0 0.0
2018-Oct-16 15:59N 39°33' E 002°38'0 0.0
2018-Oct-16 15:29N 39°33' E 002°38'0 0.0
2018-Oct-16 15:02N 39°33' E 002°38'0 0.0
2018-Oct-16 14:59N 39°33' E 002°38'0 0.0
2018-Oct-16 14:02N 39°33' E 002°38'0 0.0
2018-Oct-16 13:59N 39°33' E 002°38'0 0.0
2018-Oct-16 13:29N 39°33' E 002°38'0 0.0
2018-Oct-16 13:02N 39°33' E 002°38'485.6
2018-Oct-16 13:00N 39°30' E 002°36'4500.5 200 / 71016.027.0 22.022.020.0
2018-Oct-16 12:59N 39°33' E 002°38'0 0.0
2018-Oct-16 12:29N 39°33' E 002°38'0 0.0
2018-Oct-16 11:59N 39°33' E 002°38'0 0.0
2018-Oct-16 11:29N 39°33' E 002°38'0 0.0
2018-Oct-16 11:02N 39°33' E 002°38'0 0.0
2018-Oct-16 10:59N 39°33' E 002°38'0 0.0
2018-Oct-16 10:29N 39°33' E 002°38'4 7.3
2018-Oct-16 10:00N 39°30' E 002°36'4500.5 080 / 51015.8 5.4 21.017.822.0
2018-Oct-16 09:59N 39°33' E 002°38'0 0.0
2018-Oct-16 09:26N 39°33' E 002°38'0 0.0
2018-Oct-16 09:02N 39°33' E 002°38'0 0.0
2018-Oct-16 08:59N 39°33' E 002°38'0 0.0
2018-Oct-16 08:29N 39°33' E 002°38'0 0.0
2018-Oct-16 08:02N 39°33' E 002°38'0 0.0
2018-Oct-16 07:59N 39°33' E 002°38'0 0.0
2018-Oct-16 07:29N 39°33' E 002°38'0 0.0
2018-Oct-16 07:02N 39°33' E 002°38'0 0.0
2018-Oct-16 06:59N 39°33' E 002°38'0 0.0
2018-Oct-16 06:29N 39°33' E 002°38'0 0.0
2018-Oct-16 05:59N 39°33' E 002°38'0 0.8
2018-Oct-16 05:30N 39°33' E 002°39'511.6
2018-Oct-16 05:03N 39°28' E 002°36'0 9.7
2018-Oct-16 05:00N 39°28' E 002°35'4 8.6
2018-Oct-16 04:30N 39°25' E 002°31'4 9.3
2018-Oct-16 04:03N 39°26' E 002°26'0 9.6
2018-Oct-16 04:00N 39°27' E 002°25'64 9.2
2018-Oct-15 21:00N 40°30' E 002°12'3712.0 200 / 101012.810.8 21.017.822.0
2018-Oct-15 17:56N 41°07' E 002°14'410.3
2018-Oct-15 17:31N 41°11' E 002°14'510.2
2018-Oct-15 17:03N 41°16' E 002°14'111.9
2018-Oct-15 17:00N 41°16' E 002°14'510.6
2018-Oct-15 16:31N 41°21' E 002°11'1 0.7
2018-Oct-15 14:45N 41°22' E 002°11'0 0.0
2018-Oct-15 14:03N 41°22' E 002°11'698.7
2018-Oct-15 14:00N 41°18' E 002°06'659.8 180 / 101007.810.8 23.019.920.0
2018-Oct-15 13:54N 41°22' E 002°11'0 0.0
2018-Oct-15 13:24N 41°22' E 002°11'0 0.0
2018-Oct-15 12:57N 41°22' E 002°11'0 0.0
2018-Oct-15 12:09N 41°22' E 002°11'0 0.0
2018-Oct-15 11:57N 41°22' E 002°11'0 0.0
2018-Oct-15 11:15N 41°22' E 002°11'0 0.0
2018-Oct-15 11:00N 41°22' E 002°11'0 0.0
2018-Oct-15 10:27N 41°22' E 002°11'0 0.0
2018-Oct-15 10:03N 41°22' E 002°11'0 0.0
2018-Oct-15 09:45N 41°22' E 002°11'0 0.0
2018-Oct-15 09:30N 41°22' E 002°11'0 0.0
2018-Oct-15 09:03N 41°22' E 002°11'0 0.0
2018-Oct-15 08:57N 41°22' E 002°11'0 0.0
2018-Oct-15 08:15N 41°22' E 002°11'6 2.5
2018-Oct-15 06:00N 41°18' E 002°06'6 2.5 270 / 61005.8 5.4 20.016.723.0
2018-Oct-15 03:48N 41°22' E 002°11'1 3.4
2018-Oct-15 03:30N 41°21' E 002°11'613.1
2018-Oct-15 03:04N 41°18' E 002°18'113.5
2018-Oct-15 03:01N 41°18' E 002°19'1817.5
2018-Oct-15 02:00N 41°06' E 002°36'6611.0 150 / 281005.810.8 21.019.420.0
2018-Oct-14 20:00N 40°36' E 003°54'63 8.9 130 / 301010.8 5.4 22.018.921.0
2018-Oct-14 13:00N 40°06' E 005°06'   130 / 221013.810.8 23.018.320.0

Dump ship's entire track history